Time;durP1;ratioP1;P1;durP2;ratioP2;P2;SDS_P1;SDS_P2;PMS_P1;PMS_P2;Temp;Humidity;BMP_temperature;BMP_pressure;BME280_temperature;BME280_humidity;BME280_pressure;Samples;Min_cycle;Max_cycle;Signal;HPM_P1;HPM_P2
2023/10/01 00:00:08;;;;;;;10.90;7.30;;;;;;;;;;5106672;27;20054;-78
2023/10/01 00:02:34;;;;;;;10.45;7.50;;;;;;;;;;5107360;27;20446;-79
2023/10/01 00:04:59;;;;;;;8.63;7.30;;;;;;;;;;5105445;27;20027;-77
2023/10/01 00:07:26;;;;;;;7.80;7.00;;;;;;;;;;5102780;27;20115;-78
2023/10/01 00:09:52;;;;;;;8.25;7.43;;;;;;;;;;5104854;27;20041;-78
2023/10/01 00:12:17;;;;;;;8.25;7.32;;;;;;;;;;5114435;27;20406;-79
2023/10/01 00:14:43;;;;;;;7.88;6.70;;;;;;;;;;5113842;27;20050;-77
2023/10/01 00:17:09;;;;;;;8.50;7.65;;;;;;;;;;5116089;27;20049;-77
2023/10/01 00:19:35;;;;;;;10.30;6.72;;;;;;;;;;5117613;27;20023;-76
2023/10/01 00:22:00;;;;;;;13.07;7.72;;;;;;;;;;5114754;27;20459;-77
2023/10/01 00:24:26;;;;;;;12.10;7.63;;;;;;;;;;5114306;27;20034;-78
2023/10/01 00:26:51;;;;;;;9.18;7.43;;;;;;;;;;5114770;27;20054;-76
2023/10/01 00:29:17;;;;;;;8.63;7.40;;;;;;;;;;5116327;27;20342;-76
2023/10/01 00:31:43;;;;;;;8.45;7.63;;;;;;;;;;5117116;27;20038;-77
2023/10/01 00:34:08;;;;;;;7.88;7.07;;;;;;;;;;5117169;27;20370;-77
2023/10/01 00:36:35;;;;;;;8.30;7.50;;;;;;;;;;5105721;27;20035;-76
2023/10/01 00:39:02;;;;;;;9.07;7.18;;;;;;;;;;5113944;27;20502;-79
2023/10/01 00:41:28;;;;;;;7.82;7.13;;;;;;;;;;5116005;27;20437;-76
2023/10/01 00:43:55;;;;;;;8.57;7.13;;;;;;;;;;5110089;27;20019;-76
2023/10/01 00:46:21;;;;;;;9.50;7.55;;;;;;;;;;5115572;27;20024;-77
2023/10/01 00:48:47;;;;;;;8.52;7.15;;;;;;;;;;5114182;27;21466;-76
2023/10/01 00:51:13;;;;;;;9.23;7.45;;;;;;;;;;5114770;27;20362;-76
2023/10/01 00:53:38;;;;;;;8.38;7.20;;;;;;;;;;5112992;27;20028;-78
2023/10/01 00:56:04;;;;;;;9.43;7.35;;;;;;;;;;5115161;27;20468;-76
2023/10/01 00:58:30;;;;;;;7.80;6.95;;;;;;;;;;5115930;27;20020;-76
2023/10/01 01:00:56;;;;;;;8.80;8.00;;;;;;;;;;5116334;27;20023;-76
2023/10/01 01:03:22;;;;;;;9.18;6.65;;;;;;;;;;5115546;27;20027;-76
2023/10/01 01:08:46;;;;;;;8.65;7.55;;;;;;;;;;5104388;27;20037;-78
2023/10/01 01:11:13;;;;;;;9.55;7.68;;;;;;;;;;5113112;27;20133;-78
2023/10/01 01:13:39;;;;;;;8.45;7.47;;;;;;;;;;5111301;27;20080;-76
2023/10/01 01:16:05;;;;;;;10.43;7.50;;;;;;;;;;5112856;27;20031;-76
2023/10/01 01:18:34;;;;;;;9.23;6.70;;;;;;;;;;5103928;27;20061;-77
2023/10/01 01:21:05;;;;;;;8.65;6.85;;;;;;;;;;5115518;27;20042;-77
2023/10/01 01:23:33;;;;;;;9.10;7.35;;;;;;;;;;5113408;27;20026;-76
2023/10/01 01:25:59;;;;;;;8.32;7.32;;;;;;;;;;5114267;27;20070;-77
2023/10/01 01:28:27;;;;;;;8.35;7.32;;;;;;;;;;5118059;27;20051;-78
2023/10/01 01:30:53;;;;;;;8.02;7.22;;;;;;;;;;5113913;27;20039;-77
2023/10/01 01:33:26;;;;;;;8.10;7.30;;;;;;;;;;5116691;27;20103;-78
2023/10/01 01:35:53;;;;;;;8.27;7.47;;;;;;;;;;5115872;27;20031;-78
2023/10/01 01:38:20;;;;;;;8.35;7.40;;;;;;;;;;5114807;27;20163;-77
2023/10/01 01:40:47;;;;;;;8.57;7.68;;;;;;;;;;5114973;27;20023;-78
2023/10/01 01:43:16;;;;;;;11.00;7.53;;;;;;;;;;5117216;27;20047;-76
2023/10/01 01:45:44;;;;;;;10.80;8.27;;;;;;;;;;5105820;28;20110;-78
2023/10/01 01:48:21;;;;;;;10.63;8.30;;;;;;;;;;5111937;28;20440;-76
2023/10/01 01:50:47;;;;;;;10.65;7.90;;;;;;;;;;5113023;27;20132;-76
2023/10/01 01:53:12;;;;;;;9.30;7.93;;;;;;;;;;5114963;28;20031;-78
2023/10/01 01:55:38;;;;;;;8.35;7.55;;;;;;;;;;5108360;28;20025;-78
2023/10/01 01:58:08;;;;;;;11.48;7.88;;;;;;;;;;5116821;27;20023;-77
2023/10/01 02:00:35;;;;;;;9.57;7.45;;;;;;;;;;5114637;27;20033;-78
2023/10/01 02:03:14;;;;;;;10.55;8.13;;;;;;;;;;5114209;27;20739;-77
2023/10/01 02:05:42;;;;;;;7.90;7.13;;;;;;;;;;5116823;27;20019;-79
2023/10/01 02:08:23;;;;;;;10.18;7.68;;;;;;;;;;5116797;27;20051;-77
2023/10/01 02:10:52;;;;;;;9.77;7.63;;;;;;;;;;5120152;27;20023;-77
2023/10/01 02:13:18;;;;;;;11.05;7.60;;;;;;;;;;5108620;27;20027;-77
2023/10/01 02:15:46;;;;;;;9.07;8.00;;;;;;;;;;5117749;27;20042;-77
2023/10/01 02:18:16;;;;;;;8.23;7.50;;;;;;;;;;5118730;27;20019;-76
2023/10/01 02:20:51;;;;;;;10.75;8.20;;;;;;;;;;5116052;27;20049;-79
2023/10/01 02:23:17;;;;;;;9.70;8.55;;;;;;;;;;5116658;27;20107;-76
2023/10/01 02:25:49;;;;;;;9.20;7.75;;;;;;;;;;5119462;27;20055;-77
2023/10/01 02:28:15;;;;;;;8.48;7.68;;;;;;;;;;5115186;27;20042;-77
2023/10/01 02:30:41;;;;;;;10.48;8.02;;;;;;;;;;5118489;27;20454;-78
2023/10/01 02:33:17;;;;;;;12.35;8.27;;;;;;;;;;5116438;27;20023;-79
2023/10/01 02:35:46;;;;;;;11.13;8.13;;;;;;;;;;5119888;27;20084;-78
2023/10/01 02:40:59;;;;;;;11.48;7.95;;;;;;;;;;5121308;27;20062;-76
2023/10/01 02:43:25;;;;;;;9.63;8.02;;;;;;;;;;5117952;27;20422;-76
2023/10/01 02:45:51;;;;;;;10.10;8.18;;;;;;;;;;5116371;27;20073;-76
2023/10/01 02:48:16;;;;;;;9.07;7.85;;;;;;;;;;5115936;27;20032;-75
2023/10/01 02:50:45;;;;;;;10.90;7.35;;;;;;;;;;5117448;27;20158;-75
2023/10/01 02:53:11;;;;;;;9.27;8.25;;;;;;;;;;5118281;27;20034;-78
2023/10/01 02:55:44;;;;;;;9.00;7.93;;;;;;;;;;5120140;27;20027;-75
2023/10/01 02:58:17;;;;;;;8.93;8.13;;;;;;;;;;5116328;27;20032;-76
2023/10/01 03:00:43;;;;;;;8.15;7.45;;;;;;;;;;5117133;27;20046;-78
2023/10/01 03:03:14;;;;;;;8.95;8.15;;;;;;;;;;5119953;27;20035;-75
2023/10/01 03:05:42;;;;;;;8.68;7.72;;;;;;;;;;5117443;27;20172;-77
2023/10/01 03:08:25;;;;;;;9.55;8.55;;;;;;;;;;5120128;27;20030;-75
2023/10/01 03:10:52;;;;;;;8.73;7.82;;;;;;;;;;5119702;27;20068;-79
2023/10/01 03:13:20;;;;;;;9.73;7.88;;;;;;;;;;5112740;27;20027;-77
2023/10/01 03:16:33;;;;;;;11.05;8.65;;;;;;;;;;5114174;27;20449;-76
2023/10/01 03:18:34;;;;;;;9.20;8.30;;;;;;;;;;5113330;27;20042;-78
2023/10/01 03:21:07;;;;;;;9.43;8.48;;;;;;;;;;5111102;27;20034;-76
2023/10/01 03:23:33;;;;;;;11.20;8.35;;;;;;;;;;5118754;27;20724;-77
2023/10/01 03:26:07;;;;;;;11.77;8.82;;;;;;;;;;5117236;27;20484;-75
2023/10/01 03:31:21;;;;;;;12.02;8.43;;;;;;;;;;5111433;27;20211;-76
2023/10/01 03:33:47;;;;;;;8.98;8.07;;;;;;;;;;5110239;27;20044;-79
2023/10/01 03:36:16;;;;;;;11.02;8.73;;;;;;;;;;5113807;27;20398;-76
2023/10/01 03:38:44;;;;;;;11.35;8.48;;;;;;;;;;5109900;27;20059;-78
2023/10/01 03:41:20;;;;;;;12.63;9.25;;;;;;;;;;5111948;27;20100;-77
2023/10/01 03:43:47;;;;;;;14.10;10.10;;;;;;;;;;5120819;27;20130;-76
2023/10/01 03:51:58;;;;;;;9.27;8.38;;;;;;;;;;5099021;27;20047;-77
2023/10/01 03:54:52;;;;;;;9.43;7.80;;;;;;;;;;5108268;27;20015;-76
2023/10/01 03:57:17;;;;;;;10.10;8.10;;;;;;;;;;5114250;27;20028;-79
2023/10/01 03:59:49;;;;;;;;;;;;;;;;;;5116667;27;20039;-77
2023/10/01 04:02:42;;;;;;;8.13;7.30;;;;;;;;;;5114209;27;19954;-77
2023/10/01 04:05:30;;;;;;;7.97;7.25;;;;;;;;;;5104583;27;20433;-76
2023/10/01 04:07:59;;;;;;;9.57;7.63;;;;;;;;;;5105076;27;20028;-76
2023/10/01 04:12:58;;;;;;;14.60;8.55;;;;;;;;;;5104746;27;20197;-77
2023/10/01 04:15:29;;;;;;;13.00;9.02;;;;;;;;;;5104613;27;20038;-76
2023/10/01 04:20:48;;;;;;;10.90;9.18;;;;;;;;;;5105144;27;20099;-76
2023/10/01 04:23:29;;;;;;;11.52;9.55;;;;;;;;;;5103643;27;21044;-78
2023/10/01 04:25:55;;;;;;;10.10;9.02;;;;;;;;;;5103519;27;20022;-77
2023/10/01 04:28:20;;;;;;;15.90;9.75;;;;;;;;;;5107342;27;20026;-77
2023/10/01 04:30:52;;;;;;;10.57;9.05;;;;;;;;;;5117221;27;20403;-77
2023/10/01 04:33:23;;;;;;;11.48;9.60;;;;;;;;;;5112195;27;20054;-78
2023/10/01 04:35:51;;;;;;;11.35;9.55;;;;;;;;;;5114825;27;20034;-75
2023/10/01 04:38:20;;;;;;;11.23;9.48;;;;;;;;;;5112972;27;20033;-76
2023/10/01 04:40:48;;;;;;;13.93;9.80;;;;;;;;;;5111810;27;20430;-75
2023/10/01 04:43:16;;;;;;;13.30;9.82;;;;;;;;;;5106391;27;20515;-76
2023/10/01 04:45:44;;;;;;;13.52;9.50;;;;;;;;;;5104180;27;20055;-77
2023/10/01 04:48:15;;;;;;;10.10;9.13;;;;;;;;;;5098920;27;20031;-76
2023/10/01 04:50:46;;;;;;;13.45;9.35;;;;;;;;;;5112307;27;20080;-77
2023/10/01 04:53:13;;;;;;;16.25;10.20;;;;;;;;;;5114311;27;20437;-77
2023/10/01 04:55:41;;;;;;;11.00;9.30;;;;;;;;;;5115251;27;20069;-78
2023/10/01 04:58:12;;;;;;;11.77;9.77;;;;;;;;;;5111844;27;20475;-76
2023/10/01 05:00:39;;;;;;;10.85;9.75;;;;;;;;;;5104144;27;20030;-76
2023/10/01 05:03:06;;;;;;;11.98;9.57;;;;;;;;;;5101617;27;20061;-77
2023/10/01 05:05:36;;;;;;;11.23;9.90;;;;;;;;;;5101438;27;20031;-76
2023/10/01 05:08:02;;;;;;;16.70;13.23;;;;;;;;;;5108655;27;20019;-77
2023/10/01 05:10:27;;;;;;;17.65;15.93;;;;;;;;;;5108392;27;20374;-77
2023/10/01 05:13:02;;;;;;;24.30;21.73;;;;;;;;;;5108193;27;20182;-77
2023/10/01 05:15:35;;;;;;;27.65;24.08;;;;;;;;;;5104675;27;20027;-76
2023/10/01 05:18:04;;;;;;;17.73;15.85;;;;;;;;;;5107869;27;20035;-75
2023/10/01 05:20:29;;;;;;;;;;;;;;;;;;5091085;27;20036;-77
2023/10/01 05:22:58;;;;;;;15.17;12.90;;;;;;;;;;5098828;27;19940;-75
2023/10/01 05:25:26;;;;;;;15.90;11.60;;;;;;;;;;5112875;27;20022;-75
2023/10/01 05:27:54;;;;;;;16.00;13.15;;;;;;;;;;5112304;27;20083;-75
2023/10/01 05:30:36;;;;;;;17.63;13.38;;;;;;;;;;5099433;27;20118;-75
2023/10/01 05:33:05;;;;;;;19.85;13.27;;;;;;;;;;5113110;27;20106;-75
2023/10/01 05:35:34;;;;;;;20.48;13.15;;;;;;;;;;5114795;27;20034;-75
2023/10/01 05:38:04;;;;;;;22.08;12.98;;;;;;;;;;5111996;27;20019;-74
2023/10/01 05:40:33;;;;;;;19.70;12.50;;;;;;;;;;5111680;27;20041;-77
2023/10/01 05:43:12;;;;;;;13.07;11.57;;;;;;;;;;5113696;27;20019;-77
2023/10/01 05:45:39;;;;;;;14.77;11.52;;;;;;;;;;5114502;27;20111;-76
2023/10/01 05:48:05;;;;;;;13.95;11.35;;;;;;;;;;5113449;28;20020;-74
2023/10/01 05:50:32;;;;;;;13.55;9.80;;;;;;;;;;5115769;28;20027;-76
2023/10/01 05:52:57;;;;;;;12.07;10.02;;;;;;;;;;5110841;28;20023;-74
2023/10/01 05:55:23;;;;;;;11.23;10.07;;;;;;;;;;5112596;28;20064;-76
2023/10/01 05:57:50;;;;;;;12.60;10.73;;;;;;;;;;5113960;28;20029;-74
2023/10/01 06:00:18;;;;;;;14.63;11.18;;;;;;;;;;5112897;27;20034;-73
2023/10/01 06:03:00;;;;;;;12.43;11.13;;;;;;;;;;5116221;27;20015;-74
2023/10/01 06:05:32;;;;;;;13.50;10.40;;;;;;;;;;5112130;27;20023;-75
2023/10/01 06:07:58;;;;;;;11.88;10.02;;;;;;;;;;5112609;28;20035;-74
2023/10/01 06:10:26;;;;;;;14.88;10.25;;;;;;;;;;5115274;27;20039;-75
2023/10/01 06:12:56;;;;;;;14.32;10.55;;;;;;;;;;5113269;28;20034;-74
2023/10/01 06:15:25;;;;;;;14.10;10.88;;;;;;;;;;5111021;28;20031;-73
2023/10/01 06:17:50;;;;;;;13.93;11.30;;;;;;;;;;5116705;27;20036;-74
2023/10/01 06:20:26;;;;;;;12.73;10.60;;;;;;;;;;5114636;27;20027;-75
2023/10/01 06:22:52;;;;;;;15.25;13.05;;;;;;;;;;5112579;28;20032;-73
2023/10/01 06:25:37;;;;;;;17.98;12.18;;;;;;;;;;5116955;27;20515;-73
2023/10/01 06:28:07;;;;;;;14.60;11.35;;;;;;;;;;5114303;28;20359;-75
2023/10/01 06:30:33;;;;;;;21.65;12.20;;;;;;;;;;5114531;27;20515;-74
2023/10/01 06:32:59;;;;;;;13.60;11.73;;;;;;;;;;5113422;27;20016;-76
2023/10/01 06:35:25;;;;;;;16.75;11.10;;;;;;;;;;5116501;28;20046;-75
2023/10/01 06:37:51;;;;;;;15.02;10.52;;;;;;;;;;5115544;27;20088;-74
2023/10/01 06:40:31;;;;;;;15.05;10.27;;;;;;;;;;5115243;27;20043;-74
2023/10/01 06:43:01;;;;;;;12.02;10.10;;;;;;;;;;5112565;28;20038;-74
2023/10/01 06:45:39;;;;;;;14.25;10.90;;;;;;;;;;5115932;28;20023;-73
2023/10/01 06:48:08;;;;;;;13.48;11.13;;;;;;;;;;5106323;28;20028;-74
2023/10/01 06:50:37;;;;;;;11.52;10.27;;;;;;;;;;5116086;27;20031;-74
2023/10/01 06:53:03;;;;;;;14.63;10.75;;;;;;;;;;5119685;27;20507;-76
2023/10/01 06:55:30;;;;;;;19.40;14.07;;;;;;;;;;5116499;27;20031;-74
2023/10/01 06:57:56;;;;;;;16.38;11.35;;;;;;;;;;5118446;27;20368;-73
2023/10/01 07:00:25;;;;;;;13.68;11.57;;;;;;;;;;5118093;27;20023;-75
2023/10/01 07:02:51;;;;;;;;;;;;;;;;;;5118345;27;20042;-74
2023/10/01 07:05:20;;;;;;;13.07;10.37;;;;;;;;;;5118287;27;19911;-75
2023/10/01 07:07:48;;;;;;;14.15;10.85;;;;;;;;;;5113023;27;20738;-76
2023/10/01 07:10:14;;;;;;;14.82;10.43;;;;;;;;;;5118624;27;20390;-74
2023/10/01 07:12:39;;;;;;;12.20;10.85;;;;;;;;;;5117369;27;20020;-74
2023/10/01 07:15:06;;;;;;;13.73;11.43;;;;;;;;;;5117473;27;20034;-75
2023/10/01 07:17:35;;;;;;;16.70;12.30;;;;;;;;;;5118289;27;20023;-77
2023/10/01 07:20:00;;;;;;;16.15;14.02;;;;;;;;;;5117727;27;20030;-75
2023/10/01 07:22:26;;;;;;;19.30;15.55;;;;;;;;;;5118772;27;20774;-75
2023/10/01 07:24:53;;;;;;;19.52;16.58;;;;;;;;;;5114155;27;20437;-72
2023/10/01 07:27:18;;;;;;;25.23;16.48;;;;;;;;;;5116914;27;20038;-73
2023/10/01 07:29:43;;;;;;;21.30;16.58;;;;;;;;;;5118730;27;20023;-73
2023/10/01 07:32:12;;;;;;;23.27;17.10;;;;;;;;;;5114794;27;20035;-73
2023/10/01 07:34:48;;;;;;;22.98;18.55;;;;;;;;;;5117843;27;20044;-74
2023/10/01 07:37:23;;;;;;;22.15;17.75;;;;;;;;;;5116275;27;20019;-74
2023/10/01 07:39:52;;;;;;;25.42;18.67;;;;;;;;;;5118863;27;20019;-74
2023/10/01 07:42:17;;;;;;;22.13;17.33;;;;;;;;;;5118233;27;20047;-73
2023/10/01 07:44:45;;;;;;;22.42;18.15;;;;;;;;;;5119221;27;20255;-73
2023/10/01 07:47:28;;;;;;;21.92;17.17;;;;;;;;;;5114842;27;20051;-74
2023/10/01 07:49:56;;;;;;;20.10;16.00;;;;;;;;;;5114583;27;20028;-76
2023/10/01 07:52:23;;;;;;;20.92;17.70;;;;;;;;;;5115437;27;20038;-73
2023/10/01 07:54:49;;;;;;;19.17;15.90;;;;;;;;;;5114537;27;20024;-76
2023/10/01 07:57:27;;;;;;;22.65;17.23;;;;;;;;;;5115862;27;20019;-75
2023/10/01 07:59:53;;;;;;;22.80;19.00;;;;;;;;;;5118912;27;20023;-74
2023/10/01 08:04:57;;;;;;;22.00;18.58;;;;;;;;;;5117502;27;20110;-74
2023/10/01 08:07:30;;;;;;;21.90;18.43;;;;;;;;;;5108541;27;20208;-76
2023/10/01 08:09:57;;;;;;;21.60;18.33;;;;;;;;;;5135552;27;20694;-77
2023/10/01 08:13:04;;;;;;;23.02;18.70;;;;;;;;;;5104601;27;20031;-75
2023/10/01 08:15:29;;;;;;;26.25;20.05;;;;;;;;;;5113391;27;20035;-74
2023/10/01 08:17:54;;;;;;;24.98;18.50;;;;;;;;;;5104336;27;20026;-74
2023/10/01 08:20:31;;;;;;;21.73;18.30;;;;;;;;;;5108113;27;20035;-73
2023/10/01 08:23:22;;;;;;;23.00;18.00;;;;;;;;;;5108219;27;20019;-72
2023/10/01 08:25:51;;;;;;;22.90;19.00;;;;;;;;;;5115227;27;20121;-76
2023/10/01 08:30:43;;;;;;;24.50;20.27;;;;;;;;;;5108473;27;20446;-77
2023/10/01 08:33:32;;;;;;;24.58;19.38;;;;;;;;;;5112043;27;20058;-77
2023/10/01 08:35:57;;;;;;;23.40;18.50;;;;;;;;;;5116100;27;20039;-74
2023/10/01 08:38:23;;;;;;;21.25;19.15;;;;;;;;;;5104292;27;20073;-76
2023/10/01 08:40:50;;;;;;;20.30;17.98;;;;;;;;;;5104690;27;20038;-75
2023/10/01 08:43:16;;;;;;;19.75;16.90;;;;;;;;;;5113762;27;20022;-75
2023/10/01 08:45:43;;;;;;;20.20;17.38;;;;;;;;;;5108977;27;20454;-75
2023/10/01 08:48:17;;;;;;;19.27;17.27;;;;;;;;;;5108327;27;20035;-77
2023/10/01 08:50:45;;;;;;;23.63;17.77;;;;;;;;;;5111487;27;20036;-76
2023/10/01 08:53:12;;;;;;;21.13;16.60;;;;;;;;;;5106752;27;20109;-74
2023/10/01 09:00:52;;;;;;;22.65;16.75;;;;;;;;;;5112253;27;20027;-74
2023/10/01 09:03:34;;;;;;;19.55;17.20;;;;;;;;;;5116135;27;20015;-76
2023/10/01 09:06:03;;;;;;;19.02;15.93;;;;;;;;;;5104439;27;20031;-77
2023/10/01 09:08:31;;;;;;;;;;;;;;;;;;5114151;27;20461;-76
2023/10/01 09:10:56;;;;;;;18.05;16.15;;;;;;;;;;5112430;27;19933;-76
2023/10/01 09:13:22;;;;;;;19.20;17.05;;;;;;;;;;5113289;27;20458;-74
2023/10/01 09:15:53;;;;;;;18.25;16.20;;;;;;;;;;5106986;27;20027;-76
2023/10/01 09:18:22;;;;;;;19.17;15.68;;;;;;;;;;5103411;27;20351;-75
2023/10/01 09:21:06;;;;;;;17.27;15.35;;;;;;;;;;5108283;27;20419;-75
2023/10/01 09:24:33;;;;;;;18.77;15.70;;;;;;;;;;5112698;27;20027;-76
2023/10/01 09:26:37;;;;;;;19.63;16.67;;;;;;;;;;5106807;27;20390;-78
2023/10/01 09:29:13;;;;;;;19.70;17.17;;;;;;;;;;5107055;27;20427;-75
2023/10/01 09:31:56;;;;;;;19.23;16.83;;;;;;;;;;5115077;27;20027;-76
2023/10/01 09:34:33;;;;;;;19.33;17.33;;;;;;;;;;5112567;27;20525;-74
2023/10/01 09:37:02;;;;;;;20.17;18.00;;;;;;;;;;5113535;27;20312;-74
2023/10/01 09:39:32;;;;;;;;;;;;;;;;;;5115004;27;20026;-74
2023/10/01 09:41:57;;;;;;;19.17;17.17;;;;;;;;;;5117202;27;19922;-75
2023/10/01 09:44:23;;;;;;;23.27;20.27;;;;;;;;;;5113600;27;20023;-74
2023/10/01 09:46:49;;;;;;;23.02;19.42;;;;;;;;;;5114791;27;20027;-74
2023/10/01 09:49:30;;;;;;;22.10;19.85;;;;;;;;;;5112347;28;20447;-75
2023/10/01 09:51:58;;;;;;;21.48;18.98;;;;;;;;;;5113455;27;20063;-77
2023/10/01 09:54:28;;;;;;;21.40;19.17;;;;;;;;;;5112175;28;20042;-75
2023/10/01 09:56:55;;;;;;;19.33;17.33;;;;;;;;;;5112311;27;20071;-74
2023/10/01 09:59:20;;;;;;;19.35;17.38;;;;;;;;;;5110651;28;20068;-74
2023/10/01 10:01:46;;;;;;;23.05;18.50;;;;;;;;;;5113110;27;20026;-75
2023/10/01 10:04:11;;;;;;;21.55;19.25;;;;;;;;;;5113109;28;20027;-74
2023/10/01 10:06:41;;;;;;;22.35;19.95;;;;;;;;;;5113050;27;20020;-78
2023/10/01 10:09:25;;;;;;;22.58;20.27;;;;;;;;;;5114989;28;20423;-75
2023/10/01 10:11:50;;;;;;;20.63;18.42;;;;;;;;;;5113534;28;20058;-75
2023/10/01 10:14:28;;;;;;;21.42;19.35;;;;;;;;;;5113120;27;20024;-74
2023/10/01 10:16:57;;;;;;;20.55;18.33;;;;;;;;;;5115644;28;20111;-76
2023/10/01 10:19:23;;;;;;;20.20;17.48;;;;;;;;;;5112710;28;20019;-74
2023/10/01 10:24:29;;;;;;;20.55;17.70;;;;;;;;;;5115843;28;20087;-77
2023/10/01 10:27:06;;;;;;;20.00;17.92;;;;;;;;;;5121135;27;20045;-74
2023/10/01 10:29:46;;;;;;;22.42;20.15;;;;;;;;;;5118414;27;20060;-75
2023/10/01 10:32:11;;;;;;;21.17;18.48;;;;;;;;;;5116441;27;20045;-76
2023/10/01 10:34:47;;;;;;;20.48;18.35;;;;;;;;;;5116539;27;20042;-75
2023/10/01 10:37:33;;;;;;;18.85;16.85;;;;;;;;;;5119549;27;20012;-76
2023/10/01 10:42:46;;;;;;;17.58;15.60;;;;;;;;;;5119144;27;20038;-76
2023/10/01 10:45:20;;;;;;;21.27;16.25;;;;;;;;;;5116679;27;20370;-78
2023/10/01 10:47:58;;;;;;;19.55;17.65;;;;;;;;;;5118878;27;20047;-74
2023/10/01 10:50:39;;;;;;;19.05;17.08;;;;;;;;;;5118092;27;20031;-77
2023/10/01 10:53:26;;;;;;;18.33;15.85;;;;;;;;;;5115161;27;20348;-76
2023/10/01 10:55:55;;;;;;;18.65;16.77;;;;;;;;;;5118422;27;20087;-76
2023/10/01 10:58:20;;;;;;;;;;;;;;;;;;5118713;27;20023;-77
2023/10/01 11:00:46;;;;;;;20.47;15.97;;;;;;;;;;5116389;27;19922;-76
2023/10/01 11:03:11;;;;;;;17.73;15.75;;;;;;;;;;5120360;27;20031;-76
2023/10/01 11:05:52;;;;;;;18.35;16.45;;;;;;;;;;5118220;27;20354;-75
2023/10/01 11:08:26;;;;;;;19.23;15.35;;;;;;;;;;5117767;27;20027;-76
2023/10/01 11:10:54;;;;;;;16.85;15.13;;;;;;;;;;5115956;27;20031;-76
2023/10/01 11:13:35;;;;;;;18.80;16.80;;;;;;;;;;5115152;27;20019;-78
2023/10/01 11:16:13;;;;;;;18.33;16.42;;;;;;;;;;5115494;27;20025;-76
2023/10/01 11:18:41;;;;;;;18.27;16.42;;;;;;;;;;5114831;27;20142;-76
2023/10/01 11:21:10;;;;;;;20.63;16.92;;;;;;;;;;5119084;27;20087;-76
2023/10/01 11:23:37;;;;;;;18.85;16.85;;;;;;;;;;5116415;27;20019;-77
2023/10/01 11:26:06;;;;;;;19.77;17.83;;;;;;;;;;5119103;27;20110;-74
2023/10/01 11:28:41;;;;;;;21.48;17.70;;;;;;;;;;5117220;27;20031;-75
2023/10/01 11:31:22;;;;;;;18.67;16.77;;;;;;;;;;5116632;27;20031;-74
2023/10/01 11:34:21;;;;;;;19.65;17.65;;;;;;;;;;5116966;27;20043;-74
2023/10/01 11:36:56;;;;;;;20.30;18.20;;;;;;;;;;5113735;27;20038;-74
2023/10/01 11:39:49;;;;;;;21.33;19.00;;;;;;;;;;5105372;27;20122;-75
2023/10/01 11:42:25;;;;;;;21.27;18.98;;;;;;;;;;5105153;27;20027;-75
2023/10/01 11:44:52;;;;;;;22.52;20.08;;;;;;;;;;5101711;27;24152;-76
2023/10/01 11:47:34;;;;;;;25.50;21.05;;;;;;;;;;5103309;27;20011;-78
2023/10/01 11:50:08;;;;;;;26.17;21.73;;;;;;;;;;5101469;27;20019;-75
2023/10/01 11:52:35;;;;;;;26.52;22.52;;;;;;;;;;5103285;27;20096;-76
2023/10/01 11:55:16;;;;;;;26.25;22.75;;;;;;;;;;5104109;27;20015;-76
2023/10/01 11:57:51;;;;;;;29.73;24.13;;;;;;;;;;5106664;27;20141;-78
2023/10/01 12:00:32;;;;;;;26.48;23.77;;;;;;;;;;5105253;27;20016;-75
2023/10/01 12:02:58;;;;;;;26.10;23.30;;;;;;;;;;5107432;27;20457;-76
2023/10/01 12:05:38;;;;;;;26.23;23.55;;;;;;;;;;5101559;27;20466;-77
2023/10/01 12:08:04;;;;;;;26.05;23.27;;;;;;;;;;5109870;27;20072;-76
2023/10/01 12:10:34;;;;;;;26.83;23.90;;;;;;;;;;5102625;27;20047;-76
2023/10/01 12:13:00;;;;;;;26.63;23.92;;;;;;;;;;5110364;27;20059;-74
2023/10/01 12:15:34;;;;;;;24.65;21.95;;;;;;;;;;5104295;27;20050;-74
2023/10/01 12:18:07;;;;;;;26.23;23.48;;;;;;;;;;5106549;27;20042;-76
2023/10/01 12:20:33;;;;;;;25.92;23.38;;;;;;;;;;5111324;27;20047;-75
2023/10/01 12:23:10;;;;;;;26.85;24.25;;;;;;;;;;5104617;27;20505;-74
2023/10/01 12:25:47;;;;;;;28.55;24.23;;;;;;;;;;5102502;27;20035;-75
2023/10/01 12:28:19;;;;;;;28.33;24.42;;;;;;;;;;5137080;27;20354;-76
2023/10/01 12:30:47;;;;;;;26.95;24.25;;;;;;;;;;5107002;27;20774;-75
2023/10/01 12:33:15;;;;;;;27.80;23.48;;;;;;;;;;5105650;27;20050;-75
2023/10/01 12:35:40;;;;;;;24.63;21.58;;;;;;;;;;5105988;27;20034;-78
2023/10/01 12:38:05;;;;;;;24.08;21.67;;;;;;;;;;5104835;27;20024;-78
2023/10/01 12:40:34;;;;;;;24.75;22.30;;;;;;;;;;5103818;27;20499;-78
2023/10/01 12:43:00;;;;;;;23.88;21.33;;;;;;;;;;5102593;27;20043;-76
2023/10/01 12:45:27;;;;;;;23.67;20.95;;;;;;;;;;5103553;27;20047;-76
2023/10/01 12:47:53;;;;;;;23.00;20.58;;;;;;;;;;5105357;27;20110;-78
2023/10/01 12:50:26;;;;;;;22.60;20.30;;;;;;;;;;5102800;27;20169;-78
2023/10/01 12:53:01;;;;;;;20.17;18.02;;;;;;;;;;5103351;27;20023;-77
2023/10/01 12:55:39;;;;;;;21.15;19.15;;;;;;;;;;5104014;27;20046;-75
2023/10/01 12:58:05;;;;;;;23.83;20.42;;;;;;;;;;5105761;27;20042;-77
2023/10/01 13:00:45;;;;;;;24.48;21.90;;;;;;;;;;5104461;27;20023;-77
2023/10/01 13:03:16;;;;;;;21.25;19.15;;;;;;;;;;5103036;27;20035;-78
2023/10/01 13:05:45;;;;;;;21.50;19.35;;;;;;;;;;5102918;27;20027;-76
2023/10/01 13:08:11;;;;;;;22.73;20.42;;;;;;;;;;5103928;27;20559;-79
2023/10/01 13:10:37;;;;;;;22.60;20.33;;;;;;;;;;5099283;27;20462;-75
2023/10/01 13:13:05;;;;;;;22.65;20.15;;;;;;;;;;5102809;27;20028;-78
2023/10/01 13:15:33;;;;;;;21.05;18.63;;;;;;;;;;5104679;27;20030;-77
2023/10/01 13:18:04;;;;;;;22.52;20.33;;;;;;;;;;5112592;27;20015;-76
2023/10/01 13:20:29;;;;;;;23.38;20.73;;;;;;;;;;5113871;27;20035;-75
2023/10/01 13:23:07;;;;;;;22.77;20.42;;;;;;;;;;5113725;27;20027;-75
2023/10/01 13:25:34;;;;;;;21.60;19.50;;;;;;;;;;5114367;27;20032;-78
2023/10/01 13:28:06;;;;;;;21.83;19.35;;;;;;;;;;5115614;27;20011;-79
2023/10/01 13:33:19;;;;;;;24.10;21.35;;;;;;;;;;5113428;27;20050;-79
2023/10/01 13:35:53;;;;;;;23.33;20.88;;;;;;;;;;5113432;27;20023;-76
2023/10/01 14:10:55;;;;;;;22.90;20.52;;;;;;;;;;5107165;27;20080;-76
2023/10/01 14:13:34;;;;;;;23.75;21.25;;;;;;;;;;5104267;27;20023;-76
2023/10/01 14:16:12;;;;;;;25.98;23.38;;;;;;;;;;5106400;27;20015;-74
2023/10/01 14:18:40;;;;;;;23.55;21.17;;;;;;;;;;5102923;27;20027;-74
2023/10/01 14:21:15;;;;;;;21.40;19.02;;;;;;;;;;5104269;27;20031;-75
2023/10/01 14:23:42;;;;;;;22.38;20.27;;;;;;;;;;5103624;27;20120;-75
2023/10/01 14:26:12;;;;;;;22.38;19.98;;;;;;;;;;5106415;27;20457;-75
2023/10/01 14:28:38;;;;;;;23.33;19.98;;;;;;;;;;5107123;27;20157;-75
2023/10/01 14:31:05;;;;;;;21.75;19.48;;;;;;;;;;5103132;27;20110;-72
2023/10/01 14:33:30;;;;;;;23.33;19.00;;;;;;;;;;5112156;27;20036;-75
2023/10/01 14:36:03;;;;;;;21.20;19.02;;;;;;;;;;5117179;27;20022;-75
2023/10/01 14:38:37;;;;;;;19.92;17.95;;;;;;;;;;5116608;27;20069;-73
2023/10/01 14:41:04;;;;;;;19.58;17.48;;;;;;;;;;5119323;27;20030;-75
2023/10/01 14:43:29;;;;;;;21.25;18.75;;;;;;;;;;5117310;27;20024;-73
2023/10/01 14:45:55;;;;;;;20.13;18.08;;;;;;;;;;5115569;27;20084;-74
2023/10/01 14:48:22;;;;;;;20.38;17.55;;;;;;;;;;5117714;27;20540;-72
2023/10/01 14:50:48;;;;;;;19.00;16.95;;;;;;;;;;5117653;27;20108;-76
2023/10/01 14:53:13;;;;;;;19.60;17.65;;;;;;;;;;5117861;27;20501;-73
2023/10/01 14:55:43;;;;;;;19.00;17.10;;;;;;;;;;5112994;27;20027;-76
2023/10/01 14:58:15;;;;;;;22.27;18.30;;;;;;;;;;5108811;27;20015;-75
2023/10/01 15:00:51;;;;;;;20.08;17.95;;;;;;;;;;5112207;27;20027;-73
2023/10/01 15:03:17;;;;;;;19.08;17.17;;;;;;;;;;5103829;27;20026;-74
2023/10/01 15:05:43;;;;;;;22.15;16.48;;;;;;;;;;5114004;27;20031;-74
2023/10/01 15:08:08;;;;;;;17.95;16.20;;;;;;;;;;5112769;27;20294;-74
2023/10/01 15:10:33;;;;;;;20.10;16.95;;;;;;;;;;5100589;27;20453;-73
2023/10/01 15:13:01;;;;;;;17.98;16.27;;;;;;;;;;5090724;27;20028;-73
2023/10/01 15:15:27;;;;;;;19.08;17.13;;;;;;;;;;5095291;27;20023;-72
2023/10/01 15:17:55;;;;;;;18.52;16.83;;;;;;;;;;5095635;27;21074;-72
2023/10/01 15:20:30;;;;;;;18.60;16.70;;;;;;;;;;5091382;27;20105;-73
2023/10/01 15:22:56;;;;;;;18.25;16.45;;;;;;;;;;5102159;27;20032;-71
2023/10/01 15:25:22;;;;;;;25.98;19.42;;;;;;;;;;5103158;27;20034;-71
2023/10/01 15:27:48;;;;;;;20.50;18.33;;;;;;;;;;5104961;27;20062;-73
2023/10/01 15:30:30;;;;;;;20.60;18.50;;;;;;;;;;5104687;27;20078;-75
2023/10/01 15:33:00;;;;;;;21.23;19.05;;;;;;;;;;5112849;27;20088;-74
2023/10/01 15:35:26;;;;;;;21.73;19.63;;;;;;;;;;5114292;27;20023;-73
2023/10/01 15:37:52;;;;;;;19.90;18.00;;;;;;;;;;5115970;27;20065;-74
2023/10/01 15:40:23;;;;;;;21.45;19.45;;;;;;;;;;5113128;27;20018;-73
2023/10/01 15:42:53;;;;;;;20.40;18.30;;;;;;;;;;5115994;27;20023;-72
2023/10/01 15:45:18;;;;;;;21.92;18.75;;;;;;;;;;5113028;27;20027;-73
2023/10/01 15:47:47;;;;;;;21.23;19.05;;;;;;;;;;5115266;27;20353;-72
2023/10/01 15:50:15;;;;;;;21.80;19.87;;;;;;;;;;5116040;27;20451;-72
2023/10/01 15:52:46;;;;;;;23.23;20.73;;;;;;;;;;5114134;27;20043;-73